CHICAGO AURORA MUNICIPAL, IL, United States (KARR) 41-46N 088-28W 215M
Wind: from the NW (320 degrees) at 5 MPH (4 KT):0
Visibility: 1 mile(s):0
Sky conditions: obscured
Weather: rain; mist
Precipitation last hour: 0.05 inches
Temperature: 33.1 F (0.6 C)
Windchill: 28 F (-2 C):1
Dew Point: 32.0 F (0.0 C)
Relative Humidity: 95%
Pressure (altimeter): 29.76 in. Hg (1007 hPa)
ob: KARR 230952Z AUTO 32004KT 1SM RA BR VV004 01/00 A2976 RMK AO2 UPB27E31RAB31 SLP086 P0005 T00060000 TSNO
Raw METAR:KARR 230952Z AUTO 32004KT 1SM RA BR VV004 01/00 A2976 RMK AO2 UPB27E31RAB31 SLP086 P0005 T00060000 TSNO
cycle: 10
Back to top

CHICAGO/WEST CH DUPAGE, IL, United States (KDPA) 41-54N 88-15W 230M
Wind: Calm:0
Visibility: 1 mile(s):0
Sky conditions: obscured
Weather: rain; mist
Precipitation last hour: 0.02 inches
Temperature: 33.1 F (0.6 C)
Dew Point: 33.1 F (0.6 C)
Relative Humidity: 100%
Pressure (altimeter): 29.76 in. Hg (1007 hPa)
ob: KDPA 230952Z AUTO 00000KT 1SM R02L/4500FT RA BR VV002 01/01 A2976 RMK AO2 UPB31E33RAB33 SLP086 P0002 T00060006
Raw METAR:KDPA 230952Z AUTO 00000KT 1SM R02L/4500FT RA BR VV002 01/01 A2976 RMK AO2 UPB31E33RAB33 SLP086 P0002 T00060006
cycle: 10
Back to top

De Kalb, De Kalb Taylor Municipal Airport, IL, United States (KDKB) 41-55-55N 088-42-30W
Wind: from the NNW (340 degrees) at 5 MPH (4 KT):0
Visibility: 1 mile(s):0
Sky conditions: overcast
Weather: light snow
Precipitation last hour: 0.05 inches
Temperature: 32.2 F (0.1 C)
Windchill: 26 F (-3 C):1
Dew Point: 32.2 F (0.1 C)
Relative Humidity: 100%
Pressure (altimeter): 29.78 in. Hg (1008 hPa)
ob: KDKB 230955Z AUTO 34004KT 1SM -SN OVC003 00/00 A2978 RMK AO2 P0005 T00010001
Raw METAR:KDKB 230955Z AUTO 34004KT 1SM -SN OVC003 00/00 A2978 RMK AO2 P0005 T00010001
cycle: 10
Back to top

Joliet, Joliet Regional Airport, IL, United States (KJOT) 41-31-05N 088-10-31W
Wind: from the S (190 degrees) at 3 MPH (3 KT):0
Visibility: 5 mile(s):0
Sky conditions: overcast
Weather: rain
Precipitation last hour: 0.01 inches
Temperature: 36.7 F (2.6 C)
Dew Point: 36.7 F (2.6 C)
Relative Humidity: 100%
Pressure (altimeter): 29.75 in. Hg (1007 hPa)
ob: KJOT 230955Z AUTO 19003KT 5SM RA OVC004 03/03 A2975 RMK AO2 P0001 T00260026
Raw METAR:KJOT 230955Z AUTO 19003KT 5SM RA OVC004 03/03 A2975 RMK AO2 P0001 T00260026
cycle: 10
Back to top

Kankakee, Greater Kankakee Airport, IL, United States (KIKK) 41-04-17N 087-50-47W
Wind: Calm:0
Visibility: 3 mile(s):0
Sky conditions: overcast
Weather: rain
Precipitation last hour: 0.02 inches
Temperature: 34.9 F (1.6 C)
Dew Point: 34.2 F (1.2 C)
Relative Humidity: 97%
Pressure (altimeter): 29.75 in. Hg (1007 hPa)
ob: KIKK 230955Z AUTO 00000KT 3SM RA OVC002 02/01 A2975 RMK AO2 P0002 T00160012
Raw METAR:KIKK 230955Z AUTO 00000KT 3SM RA OVC002 02/01 A2975 RMK AO2 P0002 T00160012
cycle: 10
Back to top

Morris, Morris Municipal-James R Washburn Field Airport, IL, United States (KC09) 41-25-31N 088-25-07W
Wind: Calm:0
Visibility: 2 1/2 mile(s):0
Sky conditions: overcast
Weather: precipitation
Precipitation last hour: 0.04 inches
Temperature: 35.2 F (1.8 C)
Dew Point: 34.9 F (1.6 C)
Relative Humidity: 98%
Pressure (altimeter): 29.74 in. Hg (1007 hPa)
ob: KC09 230955Z AUTO 00000KT 2 1/2SM UP OVC002 02/02 A2974 RMK AO2 P0004 T00180016
Raw METAR:KC09 230955Z AUTO 00000KT 2 1/2SM UP OVC002 02/02 A2974 RMK AO2 P0004 T00180016
cycle: 10
Back to top

Peru, Illinois Valley Regional-Walter A Duncan Field Airport, IL, United States (KVYS) 41-21-07N 089-09-11W
Wind: from the N (010 degrees) at 8 MPH (7 KT):0
Visibility: 1 3/4 mile(s):0
Sky conditions: overcast
Weather: rain
Precipitation last hour: 0.13 inches
Temperature: 32.2 F (0.1 C)
Windchill: 24 F (-4 C):1
Dew Point: 32.0 F (0.0 C)
Relative Humidity: 99%
Pressure (altimeter): 29.74 in. Hg (1007 hPa)
ob: KVYS 230955Z AUTO 01007KT 1 3/4SM RA BKN004 OVC009 00/00 A2974 RMK AO2 P0013 T00010000
Raw METAR:KVYS 230955Z AUTO 01007KT 1 3/4SM RA BKN004 OVC009 00/00 A2974 RMK AO2 P0013 T00010000
cycle: 10
Back to top

Rochelle, Rochelle Municipal-Koritz Field Airport, IL, United States (KRPJ) 41-53-35N 089-04-42W
Wind: from the N (010 degrees) at 10 MPH (9 KT):0
Visibility: 1/2 mile(s):0
Sky conditions: overcast
Weather: heavy snow
Temperature: 25.7 F (-3.5 C)
Windchill: 15 F (-9 C):1
Dew Point: 25.2 F (-3.8 C)
Relative Humidity: 97%
Pressure (altimeter): 29.79 in. Hg (1008 hPa)
ob: KRPJ 230955Z AUTO 01009KT 1/2SM +SN OVC006 M03/M04 A2979 RMK AO2 T10351038
Raw METAR:KRPJ 230955Z AUTO 01009KT 1/2SM +SN OVC006 M03/M04 A2979 RMK AO2 T10351038
cycle: 10
Back to top